Portada
METAR-TAF:

METAR-TAF

Aeropuertos :

Oban, Escocia

latitud: 56-27-49N, longitud: 5-24-00W, altitud: 7 m

Observación

El informe se hizo hace 23 minutos, a las 13:50 UTC
Viento 6 kt del oeste-noroeste
Temperatura 17°C
Humedad 72%
Presión 1010 hPa
Visibilidad 10 km o más
sin nubes por debajo de 1500 m y sin presencia de cumulonimbus.

METAR: EGEO 141350Z 30006KT CAVOK 17/12 Q1010

Hora: 15:13 (14:13 UTC)

Pronóstico

El informe se hizo hace 3 horas y 15 minutos, a las 10:58 UTC
Pronóstico válido del 14 a las 12 UTC al 14 a las 17 UTC
Viento 5 kt del oeste-noroeste
Visibilidad 10 km o más
Escasas nubes a una altura de 3000 ft
Evolucionando progresivamente
del 14 a las 12 UTC al 14 a las 15 UTC
Viento 10 kt del oeste-suroeste

TAF: EGEO 141058Z 1412/1417 30005KT 9999 FEW030 BECMG 1412/1415 24010KT

Observaciones y pronósticos meteorológicos de más de 4000 aeropuertos (mensajes METAR y TAF).

Los puntos amarillos y rojos representan las estaciones disponibles.

Ponga el ratón en el punto deseado para ver el nombre de la estación.

Haga clic para ver las observaciones y los pronósticos meteorológicos.

Para cambiar el mapa : haga clic en los botones verdes con una cruz de color negro para hacer un zoom, en el botón verde con un guión para alejar o en las flechas verdes para mapas adyacentes.


METAR-TAF: